Columbus, Ohio
Traffic Map
Current Weather Conditions
Columbus, Ohio
Scattered Clouds Haze
Scattered Clouds
22°
Feels Like: 12°
Wind Chill: 12° Ceiling: Unl
Heat Index: 22° Visibility: 3mi
Dew Point: 20° Wind: 9mph
Humidity: 92% Direction: 200° (SSW)
Pressure: 30.2in Gusts: 0mph
Raw Report DataKCMH 111451Z 20008KT 3SM BR SCT006 M06/M07 A3020 RMK AO2 SLP236 T10561067 50002 $
Traffic Incident Summary
Active as of:
Severity:
Category:
InformationThere was an issue retrieving the traffic information for this location. Please try a different location or try again shortly.
Advertisements